createdAt,value
2023-05-10T00:00:18.537Z,99848.31
2023-05-10T00:01:41.651Z,99844.66
2023-05-10T00:03:05.941Z,99844.34
2023-05-10T00:04:29.170Z,99842.13
2023-05-10T00:05:51.088Z,99832.94
2023-05-10T00:07:13.844Z,99833.16
2023-05-10T00:08:35.719Z,99836.28
2023-05-10T00:09:58.661Z,99844.28
2023-05-10T00:11:22.871Z,99834.56
2023-05-10T00:12:45.997Z,99834.00
2023-05-10T00:14:08.801Z,99831.72
2023-05-10T00:15:31.977Z,99827.72
2023-05-10T00:16:54.976Z,99815.69
2023-05-10T00:18:17.948Z,99819.59
2023-05-10T00:19:39.843Z,99826.63
2023-05-10T00:21:02.680Z,99821.50
2023-05-10T00:22:24.609Z,99826.47
2023-05-10T00:23:47.468Z,99827.78
2023-05-10T00:25:10.347Z,99818.25
2023-05-10T00:26:33.149Z,99817.44
2023-05-10T00:27:56.178Z,99819.63
2023-05-10T00:29:19.010Z,99821.56
2023-05-10T00:30:43.165Z,99820.69
2023-05-10T00:32:06.889Z,99817.44
2023-05-10T00:33:29.790Z,99824.34
2023-05-10T00:34:52.611Z,99825.88
2023-05-10T00:36:15.417Z,99813.13
2023-05-10T00:37:37.304Z,99809.69
2023-05-10T00:39:00.213Z,99806.44
2023-05-10T00:40:22.098Z,99808.91
2023-05-10T00:41:44.908Z,99806.19
2023-05-10T00:43:07.772Z,99806.53
2023-05-10T00:44:29.613Z,99798.63
2023-05-10T00:45:54.728Z,99791.28
2023-05-10T00:47:17.996Z,99796.47
2023-05-10T00:48:40.166Z,99795.78
2023-05-10T00:50:03.622Z,99793.47
2023-05-10T00:51:25.935Z,99786.94
2023-05-10T00:52:48.926Z,99789.91
2023-05-10T00:54:12.703Z,99793.22
2023-05-10T00:55:35.628Z,99790.94
2023-05-10T00:56:58.055Z,99792.91
2023-05-10T00:58:20.926Z,99795.13
2023-05-10T00:59:42.787Z,99796.09
2023-05-10T01:01:07.963Z,99795.50
2023-05-10T01:02:30.027Z,99783.66
2023-05-10T01:03:53.360Z,99789.47
2023-05-10T01:05:15.328Z,99792.88
2023-05-10T01:06:38.258Z,99789.94
2023-05-10T01:08:00.153Z,99788.44
2023-05-10T01:09:23.500Z,99787.69
2023-05-10T01:10:47.339Z,99784.50
2023-05-10T01:12:09.484Z,99786.88
2023-05-10T01:13:36.040Z,99786.91
2023-05-10T01:14:59.276Z,99781.59
2023-05-10T01:16:24.103Z,99781.97
2023-05-10T01:17:49.300Z,99772.69
2023-05-10T01:19:16.428Z,99774.38
2023-05-10T01:20:45.346Z,99774.44
2023-05-10T01:22:23.630Z,99774.84
2023-05-10T01:24:10.048Z,99773.75
2023-05-10T01:26:08.344Z,99781.25
2023-05-10T01:28:02.144Z,99774.31
2023-05-10T01:30:14.641Z,99776.72
2023-05-10T01:32:01.087Z,99791.31
2023-05-10T01:33:32.176Z,99778.31
2023-05-10T01:34:57.075Z,99778.72
2023-05-10T01:36:27.156Z,99784.63
2023-05-10T01:37:59.899Z,99786.81
2023-05-10T01:39:30.087Z,99779.53
2023-05-10T01:41:03.433Z,99780.47
2023-05-10T01:42:33.000Z,99786.44
2023-05-10T01:43:59.345Z,99773.88
2023-05-10T01:45:30.995Z,99775.31
2023-05-10T01:46:57.144Z,99777.47
2023-05-10T01:48:20.921Z,99764.59
2023-05-10T01:49:49.524Z,99766.22
2023-05-10T01:51:12.081Z,99771.94
2023-05-10T01:52:38.592Z,99770.56
2023-05-10T01:54:03.295Z,99767.78
2023-05-10T01:55:29.422Z,99769.91
2023-05-10T01:56:58.130Z,99774.06
2023-05-10T01:58:24.735Z,99766.66
2023-05-10T01:59:50.951Z,99769.09
2023-05-10T02:01:15.556Z,99769.59
2023-05-10T02:02:40.800Z,99763.41
2023-05-10T02:04:04.979Z,99766.22
2023-05-10T02:05:31.358Z,99765.34
2023-05-10T02:06:55.534Z,99767.88
2023-05-10T02:08:20.876Z,99758.38
2023-05-10T02:09:48.382Z,99763.53
2023-05-10T02:11:14.314Z,99769.31
2023-05-10T02:12:38.599Z,99766.03
2023-05-10T02:14:01.513Z,99766.03
2023-05-10T02:15:26.200Z,99758.19
2023-05-10T02:16:50.121Z,99757.53
2023-05-10T02:18:14.795Z,99758.97
2023-05-10T02:19:38.775Z,99766.53
2023-05-10T02:21:04.153Z,99764.22
2023-05-10T02:22:27.623Z,99758.97
2023-05-10T02:23:54.098Z,99765.75
2023-05-10T02:25:16.702Z,99763.22
2023-05-10T02:26:40.524Z,99771.63
2023-05-10T02:28:06.688Z,99750.16
2023-05-10T02:29:30.076Z,99760.56
2023-05-10T02:30:54.170Z,99761.09
2023-05-10T02:32:17.491Z,99756.97
2023-05-10T02:33:42.317Z,99753.38
2023-05-10T02:35:06.466Z,99750.75
2023-05-10T02:36:32.409Z,99760.13
2023-05-10T02:37:55.329Z,99753.56
2023-05-10T02:39:20.388Z,99762.84
2023-05-10T02:40:43.471Z,99760.41
2023-05-10T02:42:07.601Z,99766.38
2023-05-10T02:43:33.216Z,99762.41
2023-05-10T02:45:01.734Z,99758.31
2023-05-10T02:46:25.711Z,99765.78
2023-05-10T02:47:47.944Z,99765.81
2023-05-10T02:49:11.054Z,99765.66
2023-05-10T02:50:34.868Z,99769.41
2023-05-10T02:52:03.230Z,99770.56
2023-05-10T02:53:37.533Z,99769.97
2023-05-10T02:55:04.641Z,99768.06
2023-05-10T02:56:33.736Z,99766.38
2023-05-10T02:58:00.009Z,99775.53
2023-05-10T02:59:22.768Z,99769.19
2023-05-10T03:00:44.593Z,99765.31
2023-05-10T03:02:07.950Z,99768.72
2023-05-10T03:03:30.798Z,99771.03
2023-05-10T03:04:52.691Z,99771.38
2023-05-10T03:06:15.509Z,99766.81
2023-05-10T03:07:38.721Z,99769.25
2023-05-10T03:09:01.822Z,99765.91
2023-05-10T03:10:31.038Z,99766.03
2023-05-10T03:12:02.061Z,99766.78
2023-05-10T03:13:33.713Z,99759.69
2023-05-10T03:15:08.294Z,99764.44
2023-05-10T03:16:44.788Z,99762.03
2023-05-10T03:18:11.680Z,99751.78
2023-05-10T03:19:40.999Z,99752.28
2023-05-10T03:21:06.492Z,99757.69
2023-05-10T03:22:34.175Z,99754.41
2023-05-10T03:24:02.345Z,99759.44
2023-05-10T03:25:25.917Z,99749.91
2023-05-10T03:26:48.880Z,99752.50
2023-05-10T03:28:11.929Z,99747.06
2023-05-10T03:29:35.853Z,99751.16
2023-05-10T03:30:59.456Z,99749.31
2023-05-10T03:32:21.565Z,99751.41
2023-05-10T03:33:50.534Z,99755.31
2023-05-10T03:35:15.254Z,99751.78
2023-05-10T03:36:38.224Z,99747.31
2023-05-10T03:38:01.186Z,99752.25
2023-05-10T03:39:25.835Z,99749.00
2023-05-10T03:40:49.267Z,99752.53
2023-05-10T03:42:12.827Z,99757.75
2023-05-10T03:43:36.023Z,99748.91
2023-05-10T03:44:58.079Z,99754.97
2023-05-10T03:46:20.899Z,99757.34
2023-05-10T03:47:42.801Z,99759.47
2023-05-10T03:49:05.546Z,99756.78
2023-05-10T03:50:28.686Z,99756.84
2023-05-10T03:51:51.490Z,99762.88
2023-05-10T03:53:13.374Z,99762.47
2023-05-10T03:54:37.433Z,99752.34
2023-05-10T03:55:59.210Z,99757.06
2023-05-10T03:57:22.015Z,99758.44
2023-05-10T03:58:43.849Z,99755.88
2023-05-10T04:00:07.660Z,99760.91
2023-05-10T04:01:29.457Z,99759.41
2023-05-10T04:02:52.301Z,99759.59
2023-05-10T04:04:15.256Z,99760.44
2023-05-10T04:05:37.584Z,99761.91
2023-05-10T04:07:00.399Z,99768.22
2023-05-10T04:08:23.183Z,99764.97
2023-05-10T04:09:46.373Z,99767.63
2023-05-10T04:11:09.962Z,99763.72
2023-05-10T04:12:32.759Z,99760.56
2023-05-10T04:13:54.613Z,99763.09
2023-05-10T04:15:17.541Z,99764.34
2023-05-10T04:16:39.421Z,99765.34
2023-05-10T04:18:02.275Z,99758.97
2023-05-10T04:19:25.262Z,99759.16
2023-05-10T04:20:47.090Z,99761.25
2023-05-10T04:22:10.028Z,99755.63
2023-05-10T04:23:31.917Z,99751.44
2023-05-10T04:24:56.048Z,99752.88
2023-05-10T04:26:18.005Z,99750.94
2023-05-10T04:27:40.857Z,99755.47
2023-05-10T04:29:03.526Z,99758.22
2023-05-10T04:30:26.663Z,99748.88
2023-05-10T04:31:49.789Z,99748.25
2023-05-10T04:33:12.806Z,99748.38
2023-05-10T04:34:35.150Z,99752.09
2023-05-10T04:35:57.984Z,99744.38
2023-05-10T04:37:22.307Z,99749.38
2023-05-10T04:38:44.726Z,99758.09
2023-05-10T04:40:10.287Z,99753.88
2023-05-10T04:41:33.412Z,99752.59
2023-05-10T04:42:56.171Z,99754.50
2023-05-10T04:44:18.969Z,99752.53
2023-05-10T04:45:41.770Z,99752.44
2023-05-10T04:47:04.741Z,99750.50
2023-05-10T04:48:27.721Z,99751.91
2023-05-10T04:49:49.625Z,99757.75
2023-05-10T04:51:12.639Z,99760.50
2023-05-10T04:52:35.432Z,99752.06
2023-05-10T04:54:06.063Z,99753.34
2023-05-10T04:55:30.833Z,99757.66
2023-05-10T04:56:52.690Z,99753.78
2023-05-10T04:58:15.696Z,99759.59
2023-05-10T04:59:38.620Z,99754.38
2023-05-10T05:01:07.232Z,99757.19
2023-05-10T05:02:30.147Z,99753.31
2023-05-10T05:03:54.195Z,99756.88
2023-05-10T05:05:17.186Z,99758.97
2023-05-10T05:06:40.030Z,99754.66
2023-05-10T05:08:02.880Z,99748.69
2023-05-10T05:09:24.688Z,99758.03
2023-05-10T05:10:51.128Z,99753.25
2023-05-10T05:12:15.320Z,99755.31
2023-05-10T05:13:38.230Z,99758.22
2023-05-10T05:15:00.182Z,99758.25
2023-05-10T05:16:23.058Z,99760.84
2023-05-10T05:17:45.828Z,99758.41
2023-05-10T05:19:08.977Z,99755.97
2023-05-10T05:20:34.151Z,99763.22
2023-05-10T05:21:57.290Z,99756.56
2023-05-10T05:23:21.736Z,99765.97
2023-05-10T05:24:44.525Z,99756.59
2023-05-10T05:26:08.674Z,99763.03
2023-05-10T05:27:31.673Z,99758.41
2023-05-10T05:28:55.590Z,99763.22
2023-05-10T05:30:18.852Z,99766.78
2023-05-10T05:31:41.864Z,99758.97
2023-05-10T05:33:04.942Z,99759.53
2023-05-10T05:34:28.052Z,99772.50
2023-05-10T05:35:51.789Z,99763.97
2023-05-10T05:37:14.477Z,99762.47
2023-05-10T05:38:37.435Z,99760.34
2023-05-10T05:40:02.105Z,99763.50
2023-05-10T05:41:26.947Z,99762.81
2023-05-10T05:42:50.178Z,99771.97
2023-05-10T05:44:12.951Z,99763.44
2023-05-10T05:45:35.774Z,99770.81
2023-05-10T05:46:58.645Z,99771.94
2023-05-10T05:48:21.668Z,99771.59
2023-05-10T05:49:43.580Z,99775.13
2023-05-10T05:51:07.403Z,99773.03
2023-05-10T05:52:30.376Z,99772.44
2023-05-10T05:53:53.154Z,99772.53
2023-05-10T05:55:16.345Z,99769.91
2023-05-10T05:56:40.615Z,99774.88
2023-05-10T05:58:03.780Z,99770.16
2023-05-10T05:59:26.594Z,99775.22
2023-05-10T06:00:49.712Z,99778.59
2023-05-10T06:02:12.685Z,99768.28
2023-05-10T06:03:35.699Z,99773.78
2023-05-10T06:04:57.773Z,99780.81
2023-05-10T06:06:20.623Z,99780.31
2023-05-10T06:07:43.209Z,99785.38
2023-05-10T06:09:06.026Z,99784.22
2023-05-10T06:10:28.837Z,99787.66
2023-05-10T06:11:52.933Z,99784.31
2023-05-10T06:13:16.540Z,99785.56
2023-05-10T06:14:38.600Z,99796.97
2023-05-10T06:16:01.662Z,99791.94
2023-05-10T06:17:25.108Z,99795.22
2023-05-10T06:18:47.891Z,99797.44
2023-05-10T06:20:11.823Z,99799.31
2023-05-10T06:21:34.630Z,99794.84
2023-05-10T06:22:57.388Z,99800.28
2023-05-10T06:24:20.204Z,99802.31
2023-05-10T06:25:43.260Z,99796.88
2023-05-10T06:27:08.112Z,99804.19
2023-05-10T06:28:32.259Z,99808.47
2023-05-10T06:30:02.086Z,99798.59
2023-05-10T06:31:32.350Z,99807.81
2023-05-10T06:32:54.636Z,99804.69
2023-05-10T06:34:17.405Z,99805.97
2023-05-10T06:35:40.761Z,99813.38
2023-05-10T06:37:04.583Z,99806.69
2023-05-10T06:38:27.770Z,99817.66
2023-05-10T06:39:50.575Z,99815.69
2023-05-10T06:41:13.338Z,99813.56
2023-05-10T06:42:37.561Z,99816.44
2023-05-10T06:44:00.322Z,99819.16
2023-05-10T06:45:23.191Z,99819.28
2023-05-10T06:46:46.078Z,99817.25
2023-05-10T06:48:09.163Z,99815.63
2023-05-10T06:49:31.997Z,99808.50
2023-05-10T06:50:54.856Z,99811.03
2023-05-10T06:52:17.666Z,99811.38
2023-05-10T06:53:40.456Z,99816.66
2023-05-10T06:55:04.000Z,99819.69
2023-05-10T06:56:25.818Z,99818.72
2023-05-10T06:57:49.979Z,99824.75
2023-05-10T06:59:14.483Z,99815.50
2023-05-10T07:00:40.229Z,99825.03
2023-05-10T07:02:03.208Z,99825.31
2023-05-10T07:03:26.201Z,99824.06
2023-05-10T07:04:49.265Z,99828.78
2023-05-10T07:06:21.566Z,99827.63
2023-05-10T07:07:53.759Z,99826.66
2023-05-10T07:09:16.741Z,99827.31
2023-05-10T07:10:39.516Z,99827.31
2023-05-10T07:12:02.779Z,99830.81
2023-05-10T07:13:27.110Z,99825.81
2023-05-10T07:14:49.949Z,99827.78
2023-05-10T07:16:12.860Z,99828.31
2023-05-10T07:17:35.871Z,99829.22
2023-05-10T07:18:58.806Z,99836.81
2023-05-10T07:20:21.619Z,99830.56
2023-05-10T07:21:44.417Z,99828.41
2023-05-10T07:23:07.351Z,99830.94
2023-05-10T07:24:30.814Z,99824.53
2023-05-10T07:25:54.349Z,99829.19
2023-05-10T07:27:17.203Z,99825.97
2023-05-10T07:28:41.478Z,99827.56
2023-05-10T07:30:04.866Z,99832.69
2023-05-10T07:31:27.679Z,99828.88
2023-05-10T07:32:50.559Z,99838.06
2023-05-10T07:34:13.448Z,99840.88
2023-05-10T07:35:36.353Z,99843.78
2023-05-10T07:36:59.929Z,99838.88
2023-05-10T07:38:22.823Z,99837.03
2023-05-10T07:39:45.725Z,99845.06
2023-05-10T07:41:08.690Z,99853.75
2023-05-10T07:42:31.609Z,99846.69
2023-05-10T07:43:55.719Z,99843.13
2023-05-10T07:45:18.783Z,99844.13
2023-05-10T07:46:41.748Z,99848.16
2023-05-10T07:48:04.889Z,99848.88
2023-05-10T07:49:28.037Z,99853.94
2023-05-10T07:50:50.808Z,99859.59
2023-05-10T07:52:14.681Z,99850.66
2023-05-10T07:53:37.657Z,99851.31
2023-05-10T07:54:59.735Z,99852.31
2023-05-10T07:56:26.284Z,99853.22
2023-05-10T07:57:49.144Z,99851.16
2023-05-10T07:59:17.832Z,99859.59
2023-05-10T08:00:42.186Z,99853.34
2023-05-10T08:02:05.048Z,99860.34
2023-05-10T08:03:27.999Z,99860.66
2023-05-10T08:04:50.837Z,99862.16
2023-05-10T08:06:13.831Z,99863.03
2023-05-10T08:07:36.678Z,99870.59
2023-05-10T08:08:59.889Z,99869.63
2023-05-10T08:10:22.697Z,99871.63
2023-05-10T08:11:45.498Z,99872.25
2023-05-10T08:13:08.483Z,99879.56
2023-05-10T08:14:32.809Z,99872.56
2023-05-10T08:15:55.648Z,99877.59
2023-05-10T08:17:20.074Z,99872.94
2023-05-10T08:18:43.471Z,99880.50
2023-05-10T08:20:08.302Z,99885.25
2023-05-10T08:21:32.139Z,99875.81
2023-05-10T08:22:54.961Z,99877.22
2023-05-10T08:24:17.925Z,99869.28
2023-05-10T08:25:40.904Z,99875.53
2023-05-10T08:27:03.860Z,99876.31
2023-05-10T08:28:26.682Z,99864.97
2023-05-10T08:29:50.895Z,99879.38
2023-05-10T08:31:14.001Z,99876.75
2023-05-10T08:32:38.907Z,99877.44
2023-05-10T08:34:02.252Z,99882.00
2023-05-10T08:35:25.297Z,99885.94
2023-05-10T08:36:48.142Z,99888.16
2023-05-10T08:38:10.981Z,99894.47
2023-05-10T08:39:36.368Z,99895.00
2023-05-10T08:41:00.466Z,99895.25
2023-05-10T08:42:26.531Z,99896.00
2023-05-10T08:43:49.787Z,99899.31
2023-05-10T08:45:15.432Z,99908.19
2023-05-10T08:46:44.901Z,99903.88
2023-05-10T08:48:09.161Z,99902.13
2023-05-10T08:49:33.583Z,99911.63
2023-05-10T08:51:00.064Z,99902.97
2023-05-10T08:52:24.705Z,99909.59
2023-05-10T08:53:47.947Z,99906.78
2023-05-10T08:55:11.239Z,99904.09
2023-05-10T08:56:34.529Z,99908.72
2023-05-10T08:57:57.701Z,99913.41
2023-05-10T08:59:20.521Z,99916.81
2023-05-10T09:00:45.318Z,99923.16
2023-05-10T09:02:09.169Z,99912.25
2023-05-10T09:03:32.673Z,99914.78
2023-05-10T09:04:55.691Z,99924.22
2023-05-10T09:06:19.152Z,99924.09
2023-05-10T09:07:42.004Z,99923.69
2023-05-10T09:09:04.385Z,99924.91
2023-05-10T09:10:28.910Z,99927.72
2023-05-10T09:11:51.833Z,99936.66
2023-05-10T09:13:16.082Z,99937.19
2023-05-10T09:14:40.144Z,99938.53
2023-05-10T09:16:17.510Z,99941.38
2023-05-10T09:17:44.481Z,99946.38
2023-05-10T09:19:07.998Z,99938.63
2023-05-10T09:20:30.882Z,99940.69
2023-05-10T09:21:53.663Z,99940.88
2023-05-10T09:23:16.509Z,99946.41
2023-05-10T09:24:43.377Z,99936.03
2023-05-10T09:26:07.041Z,99944.47
2023-05-10T09:27:29.910Z,99934.66
2023-05-10T09:28:54.322Z,99944.81
2023-05-10T09:30:18.796Z,99945.16
2023-05-10T09:31:53.075Z,99946.28
2023-05-10T09:33:15.933Z,99947.28
2023-05-10T09:34:41.138Z,99950.50
2023-05-10T09:36:09.390Z,99952.28
2023-05-10T09:37:32.252Z,99945.47
2023-05-10T09:38:55.025Z,99947.13
2023-05-10T09:40:19.696Z,99947.25
2023-05-10T09:41:44.593Z,99947.53
2023-05-10T09:43:09.519Z,99951.47
2023-05-10T09:44:33.174Z,99946.72
2023-05-10T09:45:56.004Z,99959.38
2023-05-10T09:47:20.498Z,99953.75
2023-05-10T09:48:45.326Z,99964.38
2023-05-10T09:50:09.000Z,99960.13
2023-05-10T09:51:35.000Z,99963.13
2023-05-10T09:53:00.967Z,99962.19
2023-05-10T09:54:24.794Z,99971.53
2023-05-10T09:55:50.237Z,99962.50
2023-05-10T09:57:21.846Z,99971.06
2023-05-10T09:58:44.797Z,99959.72
2023-05-10T10:00:09.627Z,99963.50
2023-05-10T10:01:32.556Z,99968.75
2023-05-10T10:03:01.217Z,99972.78
2023-05-10T10:04:24.165Z,99978.03
2023-05-10T10:05:48.331Z,99963.34
2023-05-10T10:07:11.473Z,99979.16
2023-05-10T10:08:36.212Z,99969.59
2023-05-10T10:10:00.860Z,99976.06
2023-05-10T10:11:25.894Z,99975.25
2023-05-10T10:12:48.817Z,99977.00
2023-05-10T10:14:13.412Z,99972.03
2023-05-10T10:15:36.646Z,99973.22
2023-05-10T10:18:32.658Z,99979.59
2023-05-10T10:19:56.394Z,99979.81
2023-05-10T10:21:19.477Z,99981.31
2023-05-10T10:22:42.321Z,99980.69
2023-05-10T10:24:06.665Z,99983.03
2023-05-10T10:25:29.730Z,99985.06
2023-05-10T10:26:53.615Z,99982.41
2023-05-10T10:28:28.176Z,99984.38
2023-05-10T10:30:01.296Z,99982.03
2023-05-10T10:31:34.272Z,99981.91
2023-05-10T10:33:27.273Z,99978.53
2023-05-10T10:34:52.281Z,99986.25
2023-05-10T10:36:17.497Z,99994.69
2023-05-10T10:37:46.052Z,99984.53
2023-05-10T10:39:11.655Z,99985.00
2023-05-10T10:40:36.164Z,99993.44
2023-05-10T10:42:00.896Z,99985.34
2023-05-10T10:43:24.999Z,99989.63
2023-05-10T10:44:47.800Z,99991.16
2023-05-10T10:46:11.409Z,99991.72
2023-05-10T10:47:34.594Z,99984.66
2023-05-10T10:49:11.121Z,99983.44
2023-05-10T10:50:45.582Z,99990.31
2023-05-10T10:52:23.719Z,99977.63
2023-05-10T10:53:49.581Z,99988.75
2023-05-10T10:55:14.541Z,99992.69
2023-05-10T10:56:37.628Z,99992.22
2023-05-10T10:58:03.233Z,99987.84
2023-05-10T10:59:27.915Z,99984.34
2023-05-10T11:00:51.167Z,99989.50
2023-05-10T11:02:34.566Z,99984.47
2023-05-10T11:04:22.241Z,99996.34
2023-05-10T11:05:47.326Z,99983.72
2023-05-10T11:07:20.788Z,99990.03
2023-05-10T11:08:48.726Z,99981.94
2023-05-10T11:10:11.574Z,99990.53
2023-05-10T11:11:36.104Z,99993.59
2023-05-10T11:13:02.817Z,99993.03
2023-05-10T11:14:26.126Z,99986.16
2023-05-10T11:15:50.703Z,99987.91
2023-05-10T11:17:26.482Z,99983.47
2023-05-10T11:19:02.589Z,99985.66
2023-05-10T11:20:29.895Z,99991.50
2023-05-10T11:22:14.531Z,99989.41
2023-05-10T11:23:50.517Z,99995.28
2023-05-10T11:25:13.900Z,99994.41
2023-05-10T11:26:37.517Z,99992.03
2023-05-10T11:28:06.414Z,99996.56
2023-05-10T11:29:29.246Z,100006.44
2023-05-10T11:30:53.421Z,100011.16
2023-05-10T11:32:16.595Z,100013.66
2023-05-10T11:33:44.762Z,100022.28
2023-05-10T11:35:11.304Z,100014.47
2023-05-10T11:36:37.250Z,100020.63
2023-05-10T11:38:01.559Z,100023.44
2023-05-10T11:39:28.808Z,100009.16
2023-05-10T11:40:54.998Z,100022.78
2023-05-10T11:42:18.043Z,100022.63
2023-05-10T11:43:41.847Z,100022.28
2023-05-10T11:45:05.002Z,100018.34
2023-05-10T11:46:29.764Z,100023.19
2023-05-10T11:47:52.767Z,100019.38
2023-05-10T11:49:15.712Z,100020.75
2023-05-10T11:50:38.571Z,100031.19
2023-05-10T11:52:08.398Z,100026.63
2023-05-10T11:53:34.520Z,100031.41
2023-05-10T11:54:58.601Z,100029.13
2023-05-10T11:56:22.783Z,100033.72
2023-05-10T11:57:46.905Z,100027.59
2023-05-10T11:59:09.947Z,100033.84
2023-05-10T12:00:33.954Z,100028.78
2023-05-10T12:01:57.318Z,100031.06
2023-05-10T12:03:20.465Z,100027.56
2023-05-10T12:04:43.916Z,100036.59
2023-05-10T12:06:07.205Z,100030.88
2023-05-10T12:07:29.083Z,100040.75
2023-05-10T12:08:54.581Z,100038.50
2023-05-10T12:10:19.091Z,100047.88
2023-05-10T12:11:44.323Z,100038.88
2023-05-10T12:13:08.044Z,100043.75
2023-05-10T12:14:34.264Z,100045.31
2023-05-10T12:15:59.606Z,100040.19
2023-05-10T12:17:22.675Z,100047.47
2023-05-10T12:18:46.058Z,100053.09
2023-05-10T12:20:15.355Z,100048.31
2023-05-10T12:21:39.749Z,100049.84
2023-05-10T12:23:04.739Z,100046.88
2023-05-10T12:24:28.896Z,100042.81
2023-05-10T12:25:52.397Z,100050.16
2023-05-10T12:27:16.605Z,100044.63
2023-05-10T12:28:40.294Z,100055.06
2023-05-10T12:30:04.817Z,100049.66
2023-05-10T12:31:27.608Z,100050.63
2023-05-10T12:32:50.621Z,100043.47
2023-05-10T12:34:13.626Z,100049.41
2023-05-10T12:35:46.346Z,100054.41
2023-05-10T12:37:09.155Z,100050.41
2023-05-10T12:38:35.085Z,100057.41
2023-05-10T12:39:59.159Z,100057.50
2023-05-10T12:41:22.213Z,100052.78
2023-05-10T12:42:45.824Z,100054.31
2023-05-10T12:44:08.718Z,100055.53
2023-05-10T12:45:31.802Z,100061.28
2023-05-10T12:46:53.721Z,100057.84
2023-05-10T12:48:16.612Z,100068.84
2023-05-10T12:49:39.381Z,100068.03
2023-05-10T12:51:02.463Z,100059.53
2023-05-10T12:52:25.233Z,100050.69
2023-05-10T12:53:49.666Z,100070.00
2023-05-10T12:55:14.006Z,100065.91
2023-05-10T12:56:37.941Z,100070.41
2023-05-10T12:58:00.909Z,100061.50
2023-05-10T12:59:23.838Z,100063.53
2023-05-10T13:00:46.910Z,100064.19
2023-05-10T13:02:10.919Z,100068.31
2023-05-10T13:03:33.980Z,100064.75
2023-05-10T13:04:57.334Z,100065.88
2023-05-10T13:06:20.093Z,100066.44
2023-05-10T13:07:44.829Z,100065.59
2023-05-10T13:09:07.922Z,100067.28
2023-05-10T13:10:33.357Z,100068.75
2023-05-10T13:11:56.261Z,100061.09
2023-05-10T13:13:19.248Z,100067.72
2023-05-10T13:14:42.457Z,100072.53
2023-05-10T13:16:05.712Z,100066.19
2023-05-10T13:17:28.732Z,100065.88
2023-05-10T13:18:51.623Z,100066.41
2023-05-10T13:20:14.620Z,100060.41
2023-05-10T13:21:37.499Z,100067.00
2023-05-10T13:23:00.501Z,100065.91
2023-05-10T13:24:23.307Z,100062.81
2023-05-10T13:25:47.470Z,100060.91
2023-05-10T13:27:10.327Z,100058.16
2023-05-10T13:28:33.260Z,100068.03
2023-05-10T13:29:56.044Z,100057.66
2023-05-10T13:31:18.911Z,100059.59
2023-05-10T13:32:41.765Z,100059.59
2023-05-10T13:34:05.389Z,100055.88
2023-05-10T13:35:28.169Z,100062.69
2023-05-10T13:36:51.489Z,100058.00
2023-05-10T13:38:15.081Z,100065.09
2023-05-10T13:39:38.593Z,100067.03
2023-05-10T13:41:02.753Z,100056.03
2023-05-10T13:42:25.787Z,100062.66
2023-05-10T13:43:49.929Z,100062.22
2023-05-10T13:45:14.460Z,100066.72
2023-05-10T13:46:38.862Z,100065.06
2023-05-10T13:48:01.772Z,100062.91
2023-05-10T13:49:24.601Z,100063.88
2023-05-10T13:50:47.684Z,100064.78
2023-05-10T13:52:11.088Z,100071.03
2023-05-10T13:53:34.300Z,100074.31
2023-05-10T13:54:57.539Z,100074.38
2023-05-10T13:56:21.659Z,100071.13
2023-05-10T13:57:44.509Z,100065.66
2023-05-10T13:59:07.290Z,100079.00
2023-05-10T14:00:30.123Z,100066.97
2023-05-10T14:01:53.147Z,100070.00
2023-05-10T14:03:16.002Z,100068.72
2023-05-10T14:04:38.861Z,100067.75
2023-05-10T14:06:01.971Z,100063.16
2023-05-10T14:07:24.735Z,100069.09
2023-05-10T14:08:47.765Z,100065.59
2023-05-10T14:10:11.306Z,100071.72
2023-05-10T14:11:35.445Z,100064.31
2023-05-10T14:12:58.440Z,100065.59
2023-05-10T14:14:21.498Z,100064.94
2023-05-10T14:15:44.282Z,100063.31
2023-05-10T14:17:07.109Z,100059.59
2023-05-10T14:18:30.370Z,100057.03
2023-05-10T14:19:54.156Z,100053.78
2023-05-10T14:21:17.310Z,100060.50
2023-05-10T14:22:40.132Z,100056.63
2023-05-10T14:24:02.989Z,100058.31
2023-05-10T14:25:26.128Z,100054.41
2023-05-10T14:26:50.288Z,100054.09
2023-05-10T14:28:13.811Z,100057.84
2023-05-10T14:29:36.609Z,100061.25
2023-05-10T14:30:59.948Z,100056.09
2023-05-10T14:32:22.698Z,100052.31
2023-05-10T14:33:45.491Z,100056.41
2023-05-10T14:35:10.715Z,100053.47
2023-05-10T14:36:35.134Z,100048.44
2023-05-10T14:37:57.940Z,100050.22
2023-05-10T14:39:20.754Z,100057.94
2023-05-10T14:40:43.922Z,100057.31
2023-05-10T14:42:08.084Z,100051.97
2023-05-10T14:43:31.410Z,100058.56
2023-05-10T14:44:54.143Z,100053.00
2023-05-10T14:46:17.028Z,100052.50
2023-05-10T14:47:40.113Z,100050.09
2023-05-10T14:49:03.053Z,100054.50
2023-05-10T14:51:55.178Z,100055.81
2023-05-10T14:53:18.019Z,100048.50
2023-05-10T14:54:41.232Z,100057.50
2023-05-10T14:56:04.173Z,100052.81
2023-05-10T14:57:30.496Z,100047.81
2023-05-10T14:58:53.437Z,100047.00
2023-05-10T15:00:18.092Z,100056.03
2023-05-10T15:01:42.984Z,100052.97
2023-05-10T15:03:06.442Z,100048.59
2023-05-10T15:04:30.042Z,100052.78
2023-05-10T15:05:54.068Z,100053.25
2023-05-10T15:07:18.396Z,100048.28
2023-05-10T15:08:41.531Z,100050.41
2023-05-10T15:10:05.130Z,100051.50
2023-05-10T15:11:28.373Z,100050.53
2023-05-10T15:12:52.505Z,100053.44
2023-05-10T15:14:15.380Z,100052.50
2023-05-10T15:15:38.214Z,100049.50
2023-05-10T15:17:01.235Z,100045.47
2023-05-10T15:18:27.022Z,100050.47
2023-05-10T15:19:50.154Z,100053.22
2023-05-10T15:21:13.677Z,100056.25
2023-05-10T15:22:36.919Z,100059.44
2023-05-10T15:23:59.932Z,100058.50
2023-05-10T15:25:23.587Z,100057.56
2023-05-10T15:26:46.367Z,100055.69
2023-05-10T15:28:10.488Z,100060.69
2023-05-10T15:29:33.462Z,100052.16
2023-05-10T15:30:55.782Z,100062.69
2023-05-10T15:32:18.527Z,100060.75
2023-05-10T15:33:41.283Z,100060.59
2023-05-10T15:35:04.735Z,100062.28
2023-05-10T15:36:27.664Z,100060.00
2023-05-10T15:37:50.724Z,100064.03
2023-05-10T15:39:13.866Z,100064.41
2023-05-10T15:40:36.701Z,100068.78
2023-05-10T15:41:58.575Z,100060.88
2023-05-10T15:43:22.700Z,100072.88
2023-05-10T15:44:45.951Z,100073.94
2023-05-10T15:46:08.836Z,100076.63
2023-05-10T15:47:31.959Z,100074.91
2023-05-10T15:48:54.767Z,100078.25
2023-05-10T15:50:17.897Z,100078.00
2023-05-10T15:51:42.020Z,100074.31
2023-05-10T15:53:04.812Z,100091.34
2023-05-10T15:54:26.828Z,100079.69
2023-05-10T15:55:49.614Z,100080.03
2023-05-10T15:57:11.520Z,100089.44
2023-05-10T15:58:35.661Z,100088.44
2023-05-10T15:59:58.468Z,100085.84
2023-05-10T16:01:21.370Z,100083.66
2023-05-10T16:02:44.359Z,100083.84
2023-05-10T16:04:07.195Z,100088.06
2023-05-10T16:05:32.644Z,100083.47
2023-05-10T16:06:55.422Z,100087.38
2023-05-10T16:08:18.501Z,100090.84
2023-05-10T16:09:41.330Z,100081.59
2023-05-10T16:11:04.323Z,100080.88
2023-05-10T16:12:27.207Z,100088.88
2023-05-10T16:13:51.274Z,100079.81
2023-05-10T16:15:14.052Z,100089.22
2023-05-10T16:16:37.124Z,100086.97
2023-05-10T16:18:00.062Z,100087.75
2023-05-10T16:19:23.033Z,100093.41
2023-05-10T16:20:46.009Z,100092.94
2023-05-10T16:22:08.792Z,100094.47
2023-05-10T16:23:31.848Z,100089.78
2023-05-10T16:24:54.643Z,100091.00
2023-05-10T16:26:17.564Z,100091.66